createdAt,value
2023-04-26T00:05:12.233Z,85.1
2023-04-26T00:24:21.845Z,86.4
2023-04-26T00:43:28.966Z,85.7
2023-04-26T01:02:38.811Z,86
2023-04-26T01:21:47.728Z,90
2023-04-26T01:40:58.795Z,88
2023-04-26T02:00:07.085Z,89.7
2023-04-26T02:19:16.357Z,92.6
2023-04-26T02:38:26.233Z,91.8
2023-04-26T02:57:36.636Z,90.8
2023-04-26T03:16:46.029Z,92.3
2023-04-26T03:35:56.888Z,94.1
2023-04-26T03:55:09.535Z,94.6
2023-04-26T04:14:16.954Z,93.9
2023-04-26T04:33:28.753Z,92.8
2023-04-26T04:52:39.108Z,93.1
2023-04-26T05:11:49.236Z,94.4
2023-04-26T05:30:59.566Z,95.8
2023-04-26T05:50:10.772Z,95.9
2023-04-26T06:09:25.957Z,97.2
2023-04-26T06:28:33.677Z,97.3
2023-04-26T06:47:46.714Z,95.2
2023-04-26T07:07:01.411Z,90.7
2023-04-26T07:26:17.006Z,86.2
2023-04-26T07:45:42.553Z,72.5
2023-04-26T08:05:01.994Z,70
2023-04-26T08:24:14.718Z,61
2023-04-26T08:43:24.182Z,55.1
2023-04-26T09:02:34.286Z,60.7
2023-04-26T09:21:45.561Z,55.3
2023-04-26T09:40:55.285Z,58.3
2023-04-26T10:00:06.402Z,57.2
2023-04-26T10:19:21.261Z,58.5
2023-04-26T10:38:32.052Z,54.1
2023-04-26T10:57:52.420Z,48.3
2023-04-26T11:16:54.792Z,50.6
2023-04-26T11:36:08.809Z,49.4
2023-04-26T11:55:24.653Z,45.6
2023-04-26T12:14:35.214Z,45.4
2023-04-26T12:33:45.620Z,47.4
2023-04-26T12:53:01.573Z,41.3
2023-04-26T13:12:02.308Z,44.7
2023-04-26T13:31:12.466Z,46.7
2023-04-26T13:50:26.961Z,44.6
2023-04-26T14:09:32.368Z,43.6
2023-04-26T14:28:49.910Z,42.2
2023-04-26T14:47:58.837Z,41.5
2023-04-26T15:07:06.346Z,42.6
2023-04-26T15:26:19.474Z,41.6
2023-04-26T15:45:29.444Z,43.7
2023-04-26T16:04:44.005Z,43.9
2023-04-26T16:23:55.145Z,42.8
2023-04-26T16:43:03.837Z,43.2
2023-04-26T17:02:14.461Z,44.7
2023-04-26T17:21:25.208Z,44.6
2023-04-26T17:40:34.039Z,45.4
2023-04-26T17:59:44.805Z,47
2023-04-26T18:18:52.832Z,48.2
2023-04-26T18:38:03.391Z,49.8
2023-04-26T18:57:14.195Z,50.4
2023-04-26T19:16:24.928Z,51.6
2023-04-26T19:35:35.658Z,52.8
2023-04-26T19:54:41.129Z,55.1
2023-04-26T20:13:54.553Z,55.5
2023-04-26T20:33:02.422Z,56.4
2023-04-26T20:52:14.236Z,60
2023-04-26T21:11:25.031Z,59.8
2023-04-26T21:30:33.240Z,60.5
2023-04-26T21:49:44.764Z,61.5
2023-04-26T22:08:54.846Z,63.7
2023-04-26T22:28:06.050Z,64.8
2023-04-26T22:47:16.888Z,63.2
2023-04-26T23:06:28.543Z,65
2023-04-26T23:25:40.405Z,68.1
2023-04-26T23:44:51.228Z,66.8
